BB776 LSZH-LSGG
Flight info
| Callsign | BB776 |
|---|---|
| Flight time | N/A |
| Altitude | 18000 |
| Route | VEBIT T50 ROTOS Z669 ULMES |
| Aircraft | A20N/M-SDE2E3FGHIRWXY/LB1 |
Departure
| Time | 2026-05-05 20:02 |
|---|---|
| Airport | Zürich Airport (LSZH) |
Arrival
| Time | N/A |
|---|---|
| Airport | Geneva International Airport (LSGG) |
| Time | Latitude | Longitude | Altitude | Speed | Heading |
|---|---|---|---|---|---|
| 2026-05-05 19:38 | 47.46173 | 8.55608 | 1397 ft | 0 kts | 185° |
| 2026-05-05 19:52 | 47.46179 | 8.55609 | 1397 ft | 2 kts | 182° |
| 2026-05-05 19:52 | 47.46192 | 8.55609 | 1404 ft | 2 kts | 172° |
| 2026-05-05 19:52 | 47.46206 | 8.55605 | 1400 ft | 2 kts | 159° |
| 2026-05-05 19:52 | 47.46217 | 8.55597 | 1397 ft | 2 kts | 144° |
| 2026-05-05 19:53 | 47.46228 | 8.55584 | 1403 ft | 2 kts | 130° |
| 2026-05-05 19:53 | 47.46237 | 8.55567 | 1403 ft | 2 kts | 121° |
| 2026-05-05 19:53 | 47.46244 | 8.55546 | 1402 ft | 3 kts | 111° |
| 2026-05-05 19:53 | 47.46249 | 8.55525 | 1407 ft | 0 kts | 100° |
| 2026-05-05 19:56 | 47.46248 | 8.55533 | 1407 ft | 4 kts | 100° |
| 2026-05-05 19:56 | 47.46238 | 8.55619 | 1406 ft | 12 kts | 100° |
| 2026-05-05 19:57 | 47.46230 | 8.55768 | 1397 ft | 17 kts | 85° |
| 2026-05-05 19:57 | 47.46232 | 8.55887 | 1397 ft | 15 kts | 88° |
| 2026-05-05 19:57 | 47.46166 | 8.56056 | 1400 ft | 13 kts | 138° |
| 2026-05-05 19:57 | 47.46124 | 8.56112 | 1402 ft | 4 kts | 138° |
| 2026-05-05 19:58 | 47.46118 | 8.56120 | 1401 ft | 0 kts | 138° |
| 2026-05-05 19:58 | 47.46119 | 8.56119 | 1401 ft | 0 kts | 138° |
| 2026-05-05 20:00 | 47.46069 | 8.56195 | 1407 ft | 17 kts | 124° |
| 2026-05-05 20:00 | 47.46069 | 8.56302 | 1405 ft | 6 kts | 32° |
| 2026-05-05 20:00 | 47.46137 | 8.56339 | 1399 ft | 15 kts | 6° |
| 2026-05-05 20:00 | 47.46204 | 8.56320 | 1399 ft | 5 kts | 335° |
| 2026-05-05 20:01 | 47.46261 | 8.56260 | 1397 ft | 15 kts | 320° |
| 2026-05-05 20:01 | 47.46271 | 8.56247 | 1401 ft | 0 kts | 320° |
| 2026-05-05 20:02 | 47.46319 | 8.56185 | 1402 ft | 49 kts | 318° |
| 2026-05-05 20:02 | 47.46854 | 8.55453 | 1399 ft | 156 kts | 317° |
| 2026-05-05 20:02 | 47.47778 | 8.54173 | 1960 ft | 191 kts | 316° |
| 2026-05-05 20:02 | 47.48766 | 8.52836 | 3075 ft | 197 kts | 315° |
| 2026-05-05 20:03 | 47.49834 | 8.51421 | 4031 ft | 212 kts | 317° |
| 2026-05-05 20:03 | 47.51068 | 8.50234 | 4627 ft | 214 kts | 327° |
| 2026-05-05 20:03 | 47.52336 | 8.49186 | 4869 ft | 204 kts | 315° |
| 2026-05-05 20:03 | 47.53142 | 8.47539 | 4991 ft | 197 kts | 287° |
| 2026-05-05 20:04 | 47.53393 | 8.45589 | 4982 ft | 192 kts | 267° |
| 2026-05-05 20:04 | 47.53214 | 8.43635 | 5004 ft | 192 kts | 255° |
| 2026-05-05 20:04 | 47.52789 | 8.41777 | 4996 ft | 191 kts | 248° |
| 2026-05-05 20:04 | 47.52235 | 8.39989 | 5000 ft | 196 kts | 239° |
| 2026-05-05 20:05 | 47.51158 | 8.38545 | 5069 ft | 222 kts | 207° |
| 2026-05-05 20:05 | 47.49627 | 8.37955 | 5736 ft | 229 kts | 195° |
| 2026-05-05 20:05 | 47.48077 | 8.37512 | 7192 ft | 223 kts | 195° |
| 2026-05-05 20:05 | 47.46554 | 8.37069 | 8645 ft | 226 kts | 195° |
| 2026-05-05 20:06 | 47.44999 | 8.36573 | 9967 ft | 231 kts | 199° |
| 2026-05-05 20:06 | 47.43598 | 8.35429 | 10892 ft | 234 kts | 225° |
| 2026-05-05 20:06 | 47.42626 | 8.33484 | 11432 ft | 238 kts | 238° |
| 2026-05-05 20:06 | 47.41813 | 8.31342 | 11747 ft | 240 kts | 241° |
| 2026-05-05 20:07 | 47.41031 | 8.29160 | 11913 ft | 240 kts | 241° |
| 2026-05-05 20:07 | 47.40244 | 8.26989 | 11992 ft | 241 kts | 240° |
| 2026-05-05 20:07 | 47.39434 | 8.24823 | 11997 ft | 241 kts | 240° |
| 2026-05-05 20:07 | 47.38609 | 8.22663 | 12066 ft | 243 kts | 239° |
| 2026-05-05 20:08 | 47.37768 | 8.20488 | 12521 ft | 246 kts | 239° |
| 2026-05-05 20:08 | 47.37202 | 8.19035 | 13229 ft | 246 kts | 239° |
| 2026-05-05 20:08 | 47.36430 | 8.17051 | 14471 ft | 243 kts | 239° |
| 2026-05-05 20:08 | 47.35590 | 8.14892 | 15515 ft | 250 kts | 239° |
| 2026-05-05 20:09 | 47.34707 | 8.12627 | 16336 ft | 258 kts | 239° |
| 2026-05-05 20:09 | 47.33795 | 8.10281 | 16749 ft | 261 kts | 239° |
| 2026-05-05 20:09 | 47.32901 | 8.07984 | 16929 ft | 263 kts | 239° |
| 2026-05-05 20:09 | 47.32065 | 8.05840 | 16993 ft | 263 kts | 239° |
| 2026-05-05 20:10 | 47.31156 | 8.03508 | 16998 ft | 262 kts | 239° |
| 2026-05-05 20:10 | 47.30244 | 8.01173 | 17000 ft | 263 kts | 239° |
| 2026-05-05 20:10 | 47.29268 | 7.98680 | 16998 ft | 296 kts | 239° |
| 2026-05-05 20:10 | 47.28220 | 7.96001 | 16998 ft | 300 kts | 239° |
| 2026-05-05 20:11 | 47.27180 | 7.93340 | 16991 ft | 299 kts | 239° |
| 2026-05-05 20:11 | 47.26141 | 7.90688 | 16992 ft | 299 kts | 239° |
| 2026-05-05 20:11 | 47.25228 | 7.88360 | 16991 ft | 299 kts | 239° |
| 2026-05-05 20:11 | 47.24200 | 7.85741 | 16993 ft | 299 kts | 239° |
| 2026-05-05 20:12 | 47.23158 | 7.83090 | 16989 ft | 299 kts | 239° |
| 2026-05-05 20:12 | 47.22116 | 7.80443 | 16992 ft | 299 kts | 239° |
| 2026-05-05 20:12 | 47.21073 | 7.77798 | 16994 ft | 299 kts | 239° |
| 2026-05-05 20:12 | 47.20026 | 7.75143 | 16994 ft | 299 kts | 239° |
| 2026-05-05 20:13 | 47.18957 | 7.72527 | 16995 ft | 299 kts | 235° |
| 2026-05-05 20:13 | 47.17694 | 7.70097 | 16995 ft | 299 kts | 231° |
| 2026-05-05 20:13 | 47.16433 | 7.67778 | 16995 ft | 298 kts | 231° |
| 2026-05-05 20:13 | 47.15124 | 7.65357 | 16996 ft | 299 kts | 231° |
| 2026-05-05 20:14 | 47.13837 | 7.62969 | 16997 ft | 298 kts | 231° |
| 2026-05-05 20:14 | 47.12546 | 7.60576 | 16996 ft | 298 kts | 231° |
| 2026-05-05 20:14 | 47.11256 | 7.58188 | 16999 ft | 299 kts | 231° |
| 2026-05-05 20:14 | 47.09965 | 7.55802 | 17000 ft | 298 kts | 231° |
| 2026-05-05 20:15 | 47.08675 | 7.53420 | 17002 ft | 298 kts | 231° |
| 2026-05-05 20:15 | 47.07370 | 7.51011 | 16999 ft | 308 kts | 231° |
| 2026-05-05 20:15 | 47.06026 | 7.48535 | 16998 ft | 310 kts | 231° |
| 2026-05-05 20:15 | 47.04687 | 7.46067 | 16999 ft | 309 kts | 231° |
| 2026-05-05 20:16 | 47.03345 | 7.43598 | 16999 ft | 309 kts | 231° |
| 2026-05-05 20:16 | 47.02007 | 7.41139 | 16999 ft | 309 kts | 231° |
| 2026-05-05 20:16 | 47.00664 | 7.38680 | 16999 ft | 309 kts | 231° |